createdAt,value
2018-12-27T00:02:14.845Z,16.37
2018-12-27T00:04:46.574Z,15.75
2018-12-27T00:07:18.391Z,16.23
2018-12-27T00:09:50.017Z,16.40
2018-12-27T00:12:21.651Z,16.45
2018-12-27T00:14:53.280Z,16.17
2018-12-27T00:17:24.760Z,14.85
2018-12-27T00:19:56.393Z,13.68
2018-12-27T00:22:28.134Z,13.00
2018-12-27T00:24:59.590Z,13.10
2018-12-27T00:27:31.065Z,12.80
2018-12-27T00:30:02.607Z,13.08
2018-12-27T00:32:35.189Z,13.10
2018-12-27T00:35:07.208Z,13.93
2018-12-27T00:37:38.807Z,12.50
2018-12-27T00:40:10.363Z,13.53
2018-12-27T00:42:41.971Z,17.05
2018-12-27T00:45:13.724Z,22.37
2018-12-27T00:47:45.312Z,22.35
2018-12-27T00:50:17.072Z,17.73
2018-12-27T00:52:48.799Z,17.90
2018-12-27T00:55:20.443Z,19.25
2018-12-27T00:57:52.318Z,19.52
2018-12-27T01:00:25.112Z,19.70
2018-12-27T01:02:56.708Z,22.10
2018-12-27T01:05:28.097Z,27.22
2018-12-27T01:07:59.483Z,27.98
2018-12-27T01:10:30.933Z,24.98
2018-12-27T01:13:02.298Z,34.78
2018-12-27T01:15:33.722Z,39.75
2018-12-27T01:18:05.210Z,39.67
2018-12-27T01:20:36.563Z,42.65
2018-12-27T01:23:08.312Z,45.88
2018-12-27T01:25:39.647Z,50.80
2018-12-27T01:28:11.303Z,49.80
2018-12-27T01:30:43.088Z,56.08
2018-12-27T01:33:18.675Z,39.85
2018-12-27T01:35:47.408Z,31.45
2018-12-27T01:38:18.695Z,29.72
2018-12-27T01:40:50.357Z,28.67
2018-12-27T01:43:21.876Z,25.55
2018-12-27T01:45:53.491Z,24.50
2018-12-27T01:48:24.912Z,24.45
2018-12-27T01:50:56.450Z,24.40
2018-12-27T01:53:27.923Z,23.38
2018-12-27T01:55:59.545Z,23.38
2018-12-27T01:58:31.170Z,22.62
2018-12-27T02:01:02.626Z,22.50
2018-12-27T02:03:34.304Z,23.20
2018-12-27T02:06:05.736Z,21.90
2018-12-27T02:08:37.194Z,21.02
2018-12-27T02:11:08.718Z,21.45
2018-12-27T02:13:40.048Z,21.65
2018-12-27T02:16:11.746Z,20.30
2018-12-27T02:18:43.205Z,20.48
2018-12-27T02:21:15.018Z,20.48
2018-12-27T02:23:46.590Z,20.08
2018-12-27T02:26:17.944Z,21.85
2018-12-27T02:28:49.751Z,23.25
2018-12-27T02:31:21.247Z,29.95
2018-12-27T02:33:52.831Z,40.05
2018-12-27T02:36:24.321Z,32.28
2018-12-27T02:38:55.723Z,27.52
2018-12-27T02:41:27.630Z,26.37
2018-12-27T02:43:59.216Z,23.55
2018-12-27T02:46:30.680Z,24.10
2018-12-27T02:49:01.987Z,27.77
2018-12-27T02:51:33.780Z,28.20
2018-12-27T02:54:05.160Z,34.48
2018-12-27T02:56:36.610Z,38.00
2018-12-27T02:59:08.064Z,34.75
2018-12-27T03:01:39.677Z,54.58
2018-12-27T03:04:11.179Z,36.90
2018-12-27T03:06:42.602Z,29.87
2018-12-27T03:09:13.854Z,24.57
2018-12-27T03:11:45.179Z,21.70
2018-12-27T03:14:16.455Z,20.15
2018-12-27T03:16:47.857Z,20.00
2018-12-27T03:19:19.156Z,18.75
2018-12-27T03:21:50.522Z,18.02
2018-12-27T03:24:21.784Z,18.27
2018-12-27T03:26:53.077Z,18.80
2018-12-27T03:29:24.499Z,19.05
2018-12-27T03:31:56.085Z,42.88
2018-12-27T03:34:27.349Z,36.17
2018-12-27T03:36:58.769Z,31.20
2018-12-27T03:39:30.368Z,39.95
2018-12-27T03:42:02.142Z,40.75
2018-12-27T03:44:33.506Z,30.95
2018-12-27T03:47:05.151Z,24.65
2018-12-27T03:49:36.770Z,22.00
2018-12-27T03:52:08.214Z,19.07
2018-12-27T03:54:39.674Z,21.23
2018-12-27T03:57:11.175Z,23.07
2018-12-27T03:59:42.518Z,23.73
2018-12-27T04:02:13.864Z,26.33
2018-12-27T04:04:45.144Z,27.10
2018-12-27T04:07:16.658Z,30.15
2018-12-27T04:09:48.219Z,28.65
2018-12-27T04:12:19.550Z,28.10
2018-12-27T04:14:50.913Z,26.50
2018-12-27T04:17:22.319Z,26.30
2018-12-27T04:19:54.059Z,25.30
2018-12-27T04:22:25.421Z,24.12
2018-12-27T04:24:56.818Z,24.55
2018-12-27T04:27:28.245Z,24.87
2018-12-27T04:30:00.726Z,26.57
2018-12-27T04:32:32.916Z,28.38
2018-12-27T04:35:04.556Z,27.60
2018-12-27T04:37:35.850Z,26.77
2018-12-27T04:40:07.527Z,25.17
2018-12-27T04:42:39.477Z,25.52
2018-12-27T04:45:10.908Z,25.70
2018-12-27T04:47:42.297Z,24.10
2018-12-27T04:50:13.953Z,24.15
2018-12-27T04:52:45.260Z,23.60
2018-12-27T04:55:16.552Z,24.52
2018-12-27T04:57:47.915Z,23.67
2018-12-27T05:00:19.391Z,25.52
2018-12-27T05:02:50.821Z,25.05
2018-12-27T05:05:22.268Z,26.82
2018-12-27T05:07:53.529Z,26.95
2018-12-27T05:10:24.780Z,27.22
2018-12-27T05:12:56.056Z,29.50
2018-12-27T05:15:27.383Z,29.18
2018-12-27T05:17:58.766Z,31.55
2018-12-27T05:20:29.964Z,29.95
2018-12-27T05:23:01.423Z,30.27
2018-12-27T05:25:32.994Z,32.15
2018-12-27T05:28:04.413Z,34.90
2018-12-27T05:30:35.881Z,42.35
2018-12-27T05:33:07.227Z,51.40
2018-12-27T05:35:38.988Z,58.65
2018-12-27T05:38:21.828Z,55.63
2018-12-27T05:40:53.278Z,45.08
2018-12-27T05:43:25.272Z,36.98
2018-12-27T05:45:56.709Z,38.92
2018-12-27T05:48:28.124Z,37.17
2018-12-27T05:50:59.844Z,37.70
2018-12-27T05:53:31.271Z,39.78
2018-12-27T05:56:02.486Z,38.78
2018-12-27T05:58:33.903Z,41.50
2018-12-27T06:01:05.486Z,44.90
2018-12-27T06:03:36.763Z,46.02
2018-12-27T06:06:08.210Z,45.15
2018-12-27T06:08:39.891Z,49.33
2018-12-27T06:11:11.166Z,53.17
2018-12-27T06:13:42.585Z,50.20
2018-12-27T06:16:13.818Z,44.53
2018-12-27T06:18:45.207Z,42.45
2018-12-27T06:21:16.693Z,40.92
2018-12-27T06:23:48.214Z,42.30
2018-12-27T06:26:19.553Z,41.10
2018-12-27T06:28:50.803Z,40.05
2018-12-27T06:31:22.120Z,40.20
2018-12-27T06:33:53.471Z,45.80
2018-12-27T06:36:24.910Z,43.02
2018-12-27T06:38:56.426Z,44.38
2018-12-27T06:41:28.207Z,46.35
2018-12-27T06:43:59.921Z,48.25
2018-12-27T06:46:31.299Z,47.98
2018-12-27T06:49:02.535Z,43.80
2018-12-27T06:51:34.041Z,45.67
2018-12-27T06:54:06.637Z,49.75
2018-12-27T06:56:37.936Z,46.40
2018-12-27T06:59:09.350Z,44.88
2018-12-27T07:01:40.938Z,39.90
2018-12-27T07:04:12.449Z,36.77
2018-12-27T07:06:43.850Z,41.18
2018-12-27T07:09:15.135Z,36.25
2018-12-27T07:11:46.279Z,35.17
2018-12-27T07:14:17.643Z,38.40
2018-12-27T07:16:48.903Z,33.08
2018-12-27T07:19:20.333Z,34.70
2018-12-27T07:21:52.008Z,34.38
2018-12-27T07:24:23.430Z,35.60
2018-12-27T07:26:54.923Z,48.60
2018-12-27T07:29:26.555Z,44.13
2018-12-27T07:31:57.851Z,36.77
2018-12-27T07:34:29.277Z,40.88
2018-12-27T07:37:00.855Z,38.25
2018-12-27T07:39:32.367Z,38.90
2018-12-27T07:42:03.632Z,51.13
2018-12-27T07:44:35.115Z,51.23
2018-12-27T07:47:06.341Z,46.05
2018-12-27T07:49:37.642Z,57.75
2018-12-27T07:52:08.823Z,40.95
2018-12-27T07:54:40.294Z,39.20
2018-12-27T07:57:11.349Z,41.08
2018-12-27T07:59:42.696Z,43.92
2018-12-27T08:02:14.431Z,41.92
2018-12-27T08:04:45.782Z,46.75
2018-12-27T08:07:17.599Z,45.33
2018-12-27T08:09:49.073Z,41.35
2018-12-27T08:12:20.372Z,44.55
2018-12-27T08:14:51.625Z,44.88
2018-12-27T08:17:22.790Z,45.35
2018-12-27T08:19:54.398Z,52.08
2018-12-27T08:22:25.548Z,46.20
2018-12-27T08:24:57.006Z,48.13
2018-12-27T08:27:29.312Z,48.00
2018-12-27T08:30:00.826Z,45.15
2018-12-27T08:32:32.197Z,44.15
2018-12-27T08:35:11.114Z,44.13
2018-12-27T08:37:36.906Z,42.80
2018-12-27T08:40:08.482Z,42.30
2018-12-27T08:42:39.588Z,39.63
2018-12-27T08:45:11.254Z,40.63
2018-12-27T08:47:42.534Z,38.58
2018-12-27T08:50:13.991Z,38.38
2018-12-27T08:52:45.331Z,39.13
2018-12-27T08:55:16.842Z,38.08
2018-12-27T08:57:48.390Z,37.03
2018-12-27T09:00:19.745Z,33.08
2018-12-27T09:02:51.084Z,32.10
2018-12-27T09:05:22.534Z,38.65
2018-12-27T09:07:53.911Z,40.20
2018-12-27T09:10:25.315Z,53.33
2018-12-27T09:12:56.548Z,49.77
2018-12-27T09:15:28.066Z,53.40
2018-12-27T09:17:59.578Z,61.73
2018-12-27T09:20:31.052Z,42.93
2018-12-27T09:23:02.762Z,45.10
2018-12-27T09:25:34.236Z,40.73
2018-12-27T09:28:05.811Z,42.30
2018-12-27T09:30:37.325Z,50.83
2018-12-27T09:33:08.680Z,39.45
2018-12-27T09:35:40.212Z,39.38
2018-12-27T09:38:11.688Z,39.13
2018-12-27T09:40:43.742Z,38.50
2018-12-27T09:43:15.134Z,37.88
2018-12-27T09:45:46.583Z,41.20
2018-12-27T09:48:18.003Z,40.40
2018-12-27T09:50:49.390Z,39.18
2018-12-27T09:53:21.908Z,38.75
2018-12-27T09:56:03.993Z,37.93
2018-12-27T09:58:35.454Z,41.33
2018-12-27T10:01:07.199Z,45.17
2018-12-27T10:03:38.565Z,41.68
2018-12-27T10:06:09.965Z,42.62
2018-12-27T10:11:21.397Z,38.48
2018-12-27T10:13:52.787Z,50.15
2018-12-27T10:16:24.260Z,50.98
2018-12-27T10:18:55.520Z,42.15
2018-12-27T10:21:26.906Z,40.92
2018-12-27T10:23:58.363Z,41.20
2018-12-27T10:26:29.766Z,36.70
2018-12-27T10:29:01.160Z,39.58
2018-12-27T10:31:32.740Z,42.13
2018-12-27T10:34:04.146Z,47.58
2018-12-27T10:36:35.803Z,58.33
2018-12-27T10:39:11.435Z,55.50
2018-12-27T10:41:42.861Z,49.25
2018-12-27T10:44:14.297Z,43.73
2018-12-27T10:46:45.725Z,46.35
2018-12-27T10:49:17.413Z,41.80
2018-12-27T10:51:48.723Z,42.08
2018-12-27T10:54:20.168Z,40.78
2018-12-27T10:56:51.878Z,39.08
2018-12-27T10:59:23.376Z,36.17
2018-12-27T11:01:54.637Z,34.73
2018-12-27T11:04:25.958Z,36.13
2018-12-27T11:06:57.988Z,36.38
2018-12-27T11:09:29.619Z,38.02
2018-12-27T11:12:01.204Z,37.50
2018-12-27T11:14:32.673Z,36.25
2018-12-27T11:17:04.318Z,36.85
2018-12-27T11:19:35.873Z,35.13
2018-12-27T11:22:07.205Z,35.70
2018-12-27T11:24:38.499Z,39.53
2018-12-27T11:27:09.831Z,36.63
2018-12-27T11:29:41.332Z,40.65
2018-12-27T11:32:12.764Z,39.63
2018-12-27T11:34:44.171Z,40.12
2018-12-27T11:37:15.592Z,43.75
2018-12-27T11:39:46.980Z,44.98
2018-12-27T11:42:29.966Z,38.42
2018-12-27T11:45:01.324Z,39.78
2018-12-27T11:47:32.819Z,45.75
2018-12-27T11:50:05.387Z,42.17
2018-12-27T11:52:36.882Z,36.35
2018-12-27T11:55:08.813Z,36.50
2018-12-27T11:57:40.322Z,36.53
2018-12-27T12:00:12.298Z,36.73
2018-12-27T12:02:43.662Z,36.45
2018-12-27T12:05:15.228Z,38.70
2018-12-27T12:07:46.835Z,38.88
2018-12-27T12:10:18.411Z,46.92
2018-12-27T12:12:49.632Z,40.08
2018-12-27T12:15:20.885Z,38.13
2018-12-27T12:18:04.015Z,36.30
2018-12-27T12:20:35.865Z,36.25
2018-12-27T12:23:08.367Z,34.48
2018-12-27T12:25:39.820Z,35.80
2018-12-27T12:28:11.141Z,33.83
2018-12-27T12:30:42.377Z,34.35
2018-12-27T12:33:13.844Z,34.78
2018-12-27T12:35:45.433Z,36.63
2018-12-27T12:38:16.777Z,36.33
2018-12-27T12:40:48.234Z,37.45
2018-12-27T12:43:19.657Z,38.33
2018-12-27T12:45:51.278Z,38.92
2018-12-27T12:48:23.631Z,41.68
2018-12-27T12:50:55.299Z,41.50
2018-12-27T12:53:26.691Z,43.05
2018-12-27T12:56:09.430Z,46.00
2018-12-27T12:58:40.793Z,40.43
2018-12-27T13:01:12.177Z,39.70
2018-12-27T13:03:43.625Z,38.90
2018-12-27T13:06:18.081Z,39.20
2018-12-27T13:08:49.246Z,37.70
2018-12-27T13:11:20.596Z,36.33
2018-12-27T13:13:51.754Z,41.92
2018-12-27T13:16:23.150Z,41.42
2018-12-27T13:18:54.328Z,39.90
2018-12-27T13:21:26.140Z,41.98
2018-12-27T13:23:57.768Z,40.80
2018-12-27T13:26:29.130Z,39.25
2018-12-27T13:29:00.411Z,39.85
2018-12-27T13:31:31.976Z,37.38
2018-12-27T13:34:03.501Z,39.13
2018-12-27T13:36:34.993Z,44.48
2018-12-27T13:39:08.633Z,47.20
2018-12-27T13:41:58.959Z,42.58
2018-12-27T13:44:41.440Z,40.15
2018-12-27T13:47:12.828Z,39.30
2018-12-27T13:49:43.993Z,40.25
2018-12-27T13:52:15.667Z,40.75
2018-12-27T13:54:47.018Z,42.67
2018-12-27T13:57:18.752Z,42.65
2018-12-27T13:59:50.100Z,40.25
2018-12-27T14:02:21.600Z,41.05
2018-12-27T14:04:53.094Z,39.53
2018-12-27T14:07:24.577Z,40.78
2018-12-27T14:09:55.868Z,40.50
2018-12-27T14:12:27.194Z,40.25
2018-12-27T14:14:58.822Z,41.88
2018-12-27T14:17:31.279Z,43.73
2018-12-27T14:20:02.710Z,45.40
2018-12-27T14:22:45.290Z,47.48
2018-12-27T14:25:17.092Z,51.25
2018-12-27T14:27:48.570Z,48.35
2018-12-27T14:30:20.591Z,41.73
2018-12-27T14:32:52.641Z,40.55
2018-12-27T14:35:26.264Z,41.40
2018-12-27T14:37:57.697Z,40.98
2018-12-27T14:40:29.932Z,55.73
2018-12-27T14:43:01.838Z,44.13
2018-12-27T14:45:33.391Z,37.38
2018-12-27T14:48:16.435Z,38.05
2018-12-27T14:50:47.966Z,53.68
2018-12-27T14:53:19.451Z,50.48
2018-12-27T14:55:51.289Z,50.55
2018-12-27T14:58:22.986Z,48.35
2018-12-27T15:00:54.522Z,50.17
2018-12-27T15:03:26.025Z,50.08
2018-12-27T15:05:57.742Z,49.20
2018-12-27T15:08:29.177Z,49.48
2018-12-27T15:11:00.454Z,50.67
2018-12-27T15:13:31.765Z,51.45
2018-12-27T15:16:03.181Z,55.65
2018-12-27T15:18:35.703Z,55.05
2018-12-27T15:21:07.213Z,52.60
2018-12-27T15:23:38.775Z,49.73
2018-12-27T15:26:10.133Z,47.23
2018-12-27T15:28:41.635Z,55.52
2018-12-27T15:31:13.098Z,44.50
2018-12-27T15:33:44.528Z,44.65
2018-12-27T15:36:16.152Z,44.25
2018-12-27T15:38:47.284Z,55.83
2018-12-27T15:41:30.574Z,56.50
2018-12-27T15:44:02.038Z,49.18
2018-12-27T15:46:33.692Z,49.03
2018-12-27T15:49:05.648Z,46.73
2018-12-27T15:51:38.006Z,46.20
2018-12-27T15:54:09.674Z,48.00
2018-12-27T15:56:41.170Z,46.58
2018-12-27T15:59:12.699Z,45.67
2018-12-27T16:01:44.251Z,44.73
2018-12-27T16:04:15.635Z,45.98
2018-12-27T16:06:47.300Z,44.63
2018-12-27T16:09:18.761Z,43.90
2018-12-27T16:11:50.287Z,44.83
2018-12-27T16:14:22.060Z,42.75
2018-12-27T16:16:53.723Z,44.55
2018-12-27T16:19:25.250Z,44.20
2018-12-27T16:21:56.570Z,52.03
2018-12-27T16:24:27.989Z,43.50
2018-12-27T16:26:59.410Z,106.90
2018-12-27T16:29:30.944Z,45.15
2018-12-27T16:32:03.434Z,41.75
2018-12-27T16:34:35.100Z,46.70
2018-12-27T16:37:09.107Z,68.78
2018-12-27T16:39:40.523Z,55.10
2018-12-27T16:42:12.080Z,63.55
2018-12-27T16:44:43.462Z,46.02
2018-12-27T16:47:14.775Z,58.50
2018-12-27T16:49:46.169Z,93.85
2018-12-27T16:52:17.523Z,81.50
2018-12-27T16:54:48.835Z,53.73
2018-12-27T16:57:20.341Z,45.63
2018-12-27T16:59:59.001Z,38.58
2018-12-27T17:02:30.762Z,51.18
2018-12-27T17:05:02.095Z,38.88
2018-12-27T17:07:33.360Z,33.23
2018-12-27T17:10:04.907Z,31.52
2018-12-27T17:12:36.484Z,37.60
2018-12-27T17:15:08.616Z,36.05
2018-12-27T17:17:40.176Z,38.25
2018-12-27T17:20:11.566Z,40.88
2018-12-27T17:22:43.009Z,42.20
2018-12-27T17:25:14.521Z,39.15
2018-12-27T17:27:45.926Z,36.83
2018-12-27T17:30:17.249Z,47.35
2018-12-27T17:32:48.694Z,47.83
2018-12-27T17:35:20.076Z,43.28
2018-12-27T17:37:51.559Z,37.03
2018-12-27T17:40:25.837Z,43.02
2018-12-27T17:42:58.252Z,39.63
2018-12-27T17:45:29.734Z,40.43
2018-12-27T17:48:01.322Z,38.38
2018-12-27T17:50:33.755Z,35.40
2018-12-27T17:53:05.603Z,41.60
2018-12-27T17:55:37.295Z,41.08
2018-12-27T17:58:09.078Z,42.50
2018-12-27T18:00:40.612Z,42.67
2018-12-27T18:03:12.205Z,34.65
2018-12-27T18:05:43.898Z,33.98
2018-12-27T18:08:15.173Z,34.67
2018-12-27T18:10:47.053Z,32.13
2018-12-27T18:13:30.104Z,34.30
2018-12-27T18:16:01.513Z,33.13
2018-12-27T18:18:33.028Z,36.35
2018-12-27T18:21:06.758Z,36.20
2018-12-27T18:23:39.759Z,36.08
2018-12-27T18:26:11.289Z,35.52
2018-12-27T18:28:43.869Z,36.63
2018-12-27T18:31:15.368Z,37.48
2018-12-27T18:34:06.108Z,35.90
2018-12-27T18:36:38.272Z,35.68
2018-12-27T18:39:09.974Z,37.15
2018-12-27T18:41:41.487Z,37.65
2018-12-27T18:44:13.025Z,38.35
2018-12-27T18:46:44.381Z,38.58
2018-12-27T18:49:20.662Z,37.55
2018-12-27T18:51:49.157Z,37.53
2018-12-27T18:54:21.138Z,40.90
2018-12-27T18:56:53.432Z,37.90
2018-12-27T18:59:25.285Z,39.05
2018-12-27T19:01:56.784Z,40.05
2018-12-27T19:04:28.474Z,40.08
2018-12-27T19:07:00.271Z,45.08
2018-12-27T19:09:31.870Z,45.67
2018-12-27T19:12:39.043Z,53.92
2018-12-27T19:15:14.161Z,51.95
2018-12-27T19:17:51.608Z,59.85
2018-12-27T19:20:23.003Z,67.37
2018-12-27T19:23:18.455Z,61.50
2018-12-27T19:25:49.858Z,51.18
2018-12-27T19:28:21.217Z,49.48
2018-12-27T19:30:52.857Z,54.23
2018-12-27T19:33:24.749Z,63.60
2018-12-27T19:35:56.075Z,78.95
2018-12-27T19:38:27.377Z,68.42
2018-12-27T19:40:59.032Z,61.02
2018-12-27T19:43:30.344Z,57.38
2018-12-27T19:46:01.925Z,54.00
2018-12-27T19:48:33.465Z,53.87
2018-12-27T19:51:05.049Z,54.00
2018-12-27T19:53:36.818Z,55.83
2018-12-27T19:56:08.411Z,58.50
2018-12-27T19:58:39.760Z,55.95
2018-12-27T20:01:11.258Z,54.98
2018-12-27T20:03:43.806Z,57.78
2018-12-27T20:06:15.433Z,57.43
2018-12-27T20:08:47.217Z,54.08
2018-12-27T20:11:18.681Z,50.60
2018-12-27T20:13:49.990Z,55.15
2018-12-27T20:16:21.458Z,55.17
2018-12-27T20:18:53.122Z,51.98
2018-12-27T20:21:24.428Z,50.00
2018-12-27T20:23:56.135Z,49.93
2018-12-27T20:26:27.411Z,47.67
2018-12-27T20:28:58.853Z,47.95
2018-12-27T20:31:30.227Z,46.68
2018-12-27T20:36:41.980Z,47.00
2018-12-27T20:39:13.528Z,47.55
2018-12-27T20:41:45.089Z,49.42
2018-12-27T20:44:16.648Z,50.58
2018-12-27T20:46:48.300Z,50.23
2018-12-27T20:49:20.298Z,46.08
2018-12-27T20:51:52.450Z,84.10
2018-12-27T20:54:24.515Z,69.62
2018-12-27T20:56:56.523Z,69.70
2018-12-27T20:59:28.329Z,98.80
2018-12-27T21:02:00.191Z,119.70
2018-12-27T21:04:31.679Z,112.77
2018-12-27T21:07:03.075Z,111.77
2018-12-27T21:09:34.388Z,111.20
2018-12-27T21:12:05.842Z,107.75
2018-12-27T21:14:37.155Z,126.55
2018-12-27T21:17:08.681Z,177.47
2018-12-27T21:19:40.031Z,133.80
2018-12-27T21:22:11.627Z,156.28
2018-12-27T21:24:42.978Z,179.55
2018-12-27T21:27:14.622Z,159.10
2018-12-27T21:29:45.821Z,153.62
2018-12-27T21:32:17.209Z,141.00
2018-12-27T21:34:48.637Z,165.80
2018-12-27T21:37:20.269Z,152.97
2018-12-27T21:39:51.669Z,150.95
2018-12-27T21:42:23.095Z,161.75
2018-12-27T21:44:54.545Z,167.10
2018-12-27T21:47:26.041Z,175.80
2018-12-27T21:49:57.473Z,168.35
2018-12-27T21:52:29.033Z,164.55
2018-12-27T21:55:00.614Z,175.68
2018-12-27T21:57:33.125Z,167.50
2018-12-27T22:00:04.785Z,155.52
2018-12-27T22:02:36.789Z,154.87
2018-12-27T22:05:08.421Z,155.95
2018-12-27T22:07:39.873Z,151.00
2018-12-27T22:10:11.238Z,148.75
2018-12-27T22:12:42.785Z,143.32
2018-12-27T22:15:14.325Z,123.35
2018-12-27T22:17:45.857Z,92.25
2018-12-27T22:20:17.267Z,90.50
2018-12-27T22:22:48.708Z,75.60
2018-12-27T22:25:20.239Z,71.47
2018-12-27T22:27:51.638Z,68.55
2018-12-27T22:30:22.895Z,72.70
2018-12-27T22:32:54.590Z,65.10
2018-12-27T22:35:25.975Z,66.85
2018-12-27T22:37:57.244Z,69.92
2018-12-27T22:40:28.597Z,85.65
2018-12-27T22:43:00.014Z,97.45
2018-12-27T22:45:31.791Z,105.30
2018-12-27T22:48:03.219Z,109.95
2018-12-27T22:50:34.776Z,110.85
2018-12-27T22:53:06.622Z,111.80
2018-12-27T22:55:37.946Z,113.12
2018-12-27T22:58:09.549Z,111.45
2018-12-27T23:00:42.012Z,117.77
2018-12-27T23:03:13.499Z,114.45
2018-12-27T23:05:45.064Z,115.22
2018-12-27T23:08:16.813Z,110.35
2018-12-27T23:10:48.216Z,91.12
2018-12-27T23:13:19.498Z,76.07
2018-12-27T23:15:52.171Z,73.90
2018-12-27T23:18:24.085Z,67.05
2018-12-27T23:20:55.481Z,73.62
2018-12-27T23:23:45.504Z,72.10
2018-12-27T23:26:17.139Z,74.20
2018-12-27T23:28:48.569Z,75.28
2018-12-27T23:31:20.071Z,73.70
2018-12-27T23:33:51.432Z,68.90
2018-12-27T23:36:22.831Z,68.05
2018-12-27T23:38:54.181Z,82.10
2018-12-27T23:41:25.662Z,71.65
2018-12-27T23:43:57.090Z,70.30
2018-12-27T23:46:28.559Z,82.10
2018-12-27T23:48:59.928Z,68.35
2018-12-27T23:51:31.758Z,65.72
2018-12-27T23:54:03.132Z,67.30
2018-12-27T23:56:34.683Z,80.28
2018-12-27T23:59:06.306Z,86.28
